Trempealeau, WI (54661)

11:42 AM CDT on July 24, 2016 (GMT -0500)
Nodine, mn | | Change Station

Elev 1270 ft 43.91 °N, 91.42 °W | Updated 10 seconds ago

Scattered Clouds
Scattered Clouds
81.5 °F
Feels Like 88 °F
N
13.0
Wind Variable Wind from WSW
Gusts 15.0 mph

Today
High -- | Low -- °F
--% Chance of Precip.
Yesterday
High -- | Low -- °F
Precip. -- in
Pressure 29.79 in
Visibility 10.0 miles
Clouds Scattered Clouds 3800 ft
Heat Index 88 °F
Dew Point 75 °F
Humidity 81%
Rainfall 0.00 in
Snow Depth Not available.
5:45 AM 8:37 PM
Waning Gibbous, 75% visible
METAR KLSE 241553Z 34009KT 10SM SCT038 29/23 A2982 RMK AO2 SLP086 T02940233
Pressure 29.79 in
Visibility 10.0 miles
Clouds Scattered Clouds 3800 ft
Heat Index 88 °F
Dew Point 75 °F
Humidity 81%
Rainfall 0.00 in
Snow Depth Not available.
5:45 AM 8:37 PM
Waning Gibbous, 75% visible
METAR KLSE 241553Z 34009KT 10SM SCT038 29/23 A2982 RMK AO2 SLP086 T02940233

10-Day Weather Forecast

Almanac

Astronomy

Jul. 24, 2016 Rise Set
Actual Time
Civil Twilight
Nautical Twilight
Astronomical Twilight
Moon
Length of Visible Light
Length of Day
Tomorrow will be .
, % of the Moon is Illuminated

Today's Extremes

State Highs State Lows

Community

WunderPhotos

Upload Photos

1,927,121 photos uploaded!

WunderBlog® & News

Nearby

Air Quality

  Air Quality AQ Index Pollutant
Not available.

Snow Depth

Station Depth Elevation

Earthquake Activity

City Distance Mag. Time & Date
Minimum magnitude displayed is 2.5.

Coastal Water Temperatures

Place Temperature

Stations

Nearby Weather Stations

Station Location Temp. Windchill Dew Point Humidity Wind Precip. Elev Updated Type
                   

Watches & Warnings

There are currently no watches in effect.